createdAt,value
2022-12-15T00:02:22.811Z,71.01
2022-12-15T00:05:12.810Z,71.13
2022-12-15T00:08:02.475Z,71.15
2022-12-15T00:10:52.048Z,71.10
2022-12-15T00:13:41.555Z,70.98
2022-12-15T00:16:31.251Z,71.18
2022-12-15T00:19:20.850Z,71.15
2022-12-15T00:22:10.498Z,71.15
2022-12-15T00:25:00.156Z,71.25
2022-12-15T00:27:49.973Z,71.19
2022-12-15T00:30:39.604Z,71.45
2022-12-15T00:33:30.849Z,71.14
2022-12-15T00:36:21.040Z,71.62
2022-12-15T00:38:53.190Z,71.37
2022-12-15T00:41:25.328Z,71.35
2022-12-15T00:43:57.499Z,71.58
2022-12-15T00:46:47.100Z,71.74
2022-12-15T00:49:36.881Z,71.50
2022-12-15T00:52:27.146Z,71.70
2022-12-15T00:55:17.741Z,71.69
2022-12-15T00:58:07.583Z,71.71
2022-12-15T01:00:57.238Z,71.90
2022-12-15T01:03:46.742Z,71.70
2022-12-15T01:06:39.469Z,71.59
2022-12-15T01:09:31.833Z,71.72
2022-12-15T01:12:21.515Z,71.88
2022-12-15T01:15:10.991Z,71.85
2022-12-15T01:18:00.710Z,71.88
2022-12-15T01:20:34.745Z,72.00
2022-12-15T01:23:07.169Z,71.83
2022-12-15T01:25:41.092Z,71.97
2022-12-15T01:28:13.222Z,72.07
2022-12-15T01:30:45.447Z,71.84
2022-12-15T01:33:18.707Z,72.04
2022-12-15T01:36:00.358Z,71.94
2022-12-15T01:38:32.865Z,72.02
2022-12-15T01:41:06.877Z,71.91
2022-12-15T01:43:41.007Z,71.98
2022-12-15T01:46:15.240Z,71.90
2022-12-15T01:48:50.646Z,72.09
2022-12-15T01:51:33.477Z,72.20
2022-12-15T01:54:09.502Z,71.91
2022-12-15T01:56:46.898Z,71.97
2022-12-15T01:59:25.111Z,72.36
2022-12-15T02:01:57.512Z,72.22
2022-12-15T02:04:30.130Z,72.18
2022-12-15T02:07:02.262Z,72.19
2022-12-15T02:09:34.758Z,72.19
2022-12-15T02:12:16.981Z,72.32
2022-12-15T02:15:00.243Z,72.31
2022-12-15T02:17:40.524Z,72.48
2022-12-15T02:20:36.304Z,72.32
2022-12-15T02:23:32.531Z,72.41
2022-12-15T02:26:28.799Z,72.48
2022-12-15T02:29:13.333Z,72.53
2022-12-15T02:31:51.721Z,72.41
2022-12-15T02:34:34.016Z,72.38
2022-12-15T02:37:11.967Z,72.37
2022-12-15T02:39:44.429Z,72.54
2022-12-15T02:42:16.834Z,72.35
2022-12-15T02:44:53.488Z,72.43
2022-12-15T02:47:34.106Z,72.44
2022-12-15T02:50:35.121Z,72.34
2022-12-15T02:53:20.769Z,72.53
2022-12-15T02:56:02.987Z,72.59
2022-12-15T02:58:42.800Z,72.60
2022-12-15T03:01:20.036Z,72.81
2022-12-15T03:03:53.154Z,72.43
2022-12-15T03:06:28.005Z,72.61
2022-12-15T03:09:00.177Z,72.78
2022-12-15T03:11:32.583Z,72.64
2022-12-15T03:14:05.032Z,72.75
2022-12-15T03:16:37.252Z,72.83
2022-12-15T03:19:09.471Z,72.89
2022-12-15T03:21:41.624Z,73.12
2022-12-15T03:24:14.040Z,72.86
2022-12-15T03:26:50.026Z,72.96
2022-12-15T03:29:22.484Z,73.20
2022-12-15T03:31:54.780Z,72.97
2022-12-15T03:34:27.214Z,73.01
2022-12-15T03:36:59.787Z,73.07
2022-12-15T03:39:32.052Z,73.11
2022-12-15T03:42:04.328Z,73.19
2022-12-15T03:44:36.517Z,73.06
2022-12-15T03:47:08.757Z,73.21
2022-12-15T03:49:40.973Z,73.23
2022-12-15T03:52:13.196Z,73.24
2022-12-15T03:54:45.341Z,73.19
2022-12-15T03:57:17.467Z,73.18
2022-12-15T03:59:49.694Z,73.20
2022-12-15T04:02:22.573Z,73.34
2022-12-15T04:04:55.085Z,73.36
2022-12-15T04:07:27.248Z,73.40
2022-12-15T04:09:59.382Z,73.32
2022-12-15T04:12:31.603Z,73.60
2022-12-15T04:15:03.794Z,73.41
2022-12-15T04:17:36.189Z,73.71
2022-12-15T04:20:10.831Z,73.52
2022-12-15T04:22:45.180Z,73.54
2022-12-15T04:25:37.374Z,73.48
2022-12-15T04:28:27.591Z,73.51
2022-12-15T04:31:21.315Z,73.70
2022-12-15T04:34:14.252Z,73.42
2022-12-15T04:37:07.977Z,73.58
2022-12-15T04:39:59.791Z,73.68
2022-12-15T04:42:51.706Z,73.97
2022-12-15T04:45:43.807Z,73.59
2022-12-15T04:48:34.125Z,73.81
2022-12-15T04:51:24.179Z,73.72
2022-12-15T04:54:13.797Z,73.73
2022-12-15T04:57:04.024Z,73.80
2022-12-15T04:59:53.614Z,73.93
2022-12-15T05:02:43.157Z,73.92
2022-12-15T05:05:33.195Z,73.95
2022-12-15T05:08:22.707Z,74.03
2022-12-15T05:11:12.609Z,73.85
2022-12-15T05:14:02.252Z,74.00
2022-12-15T05:16:51.742Z,74.03
2022-12-15T05:19:41.564Z,74.12
2022-12-15T05:22:31.275Z,74.14
2022-12-15T05:25:20.838Z,73.91
2022-12-15T05:28:10.335Z,74.15
2022-12-15T05:31:00.226Z,74.19
2022-12-15T05:33:32.690Z,74.24
2022-12-15T05:36:06.054Z,74.20
2022-12-15T05:38:38.288Z,74.29
2022-12-15T05:41:10.435Z,74.25
2022-12-15T05:43:42.613Z,74.31
2022-12-15T05:46:15.866Z,74.35
2022-12-15T05:48:48.356Z,74.28
2022-12-15T05:51:20.514Z,74.11
2022-12-15T05:53:52.678Z,74.45
2022-12-15T05:56:26.178Z,74.18
2022-12-15T05:58:58.836Z,74.22
2022-12-15T06:01:32.142Z,74.22
2022-12-15T06:04:04.718Z,74.56
2022-12-15T06:06:37.071Z,74.23
2022-12-15T06:09:09.464Z,74.53
2022-12-15T06:11:41.884Z,74.63
2022-12-15T06:14:14.074Z,74.62
2022-12-15T06:16:49.968Z,74.63
2022-12-15T06:19:24.155Z,74.60
2022-12-15T06:21:56.304Z,74.36
2022-12-15T06:24:28.721Z,74.46
2022-12-15T06:27:00.866Z,74.62
2022-12-15T06:29:33.354Z,74.45
2022-12-15T06:32:05.998Z,74.43
2022-12-15T06:34:38.307Z,74.51
2022-12-15T06:37:10.450Z,74.63
2022-12-15T06:39:42.817Z,74.50
2022-12-15T06:42:15.411Z,74.54
2022-12-15T06:44:47.661Z,74.37
2022-12-15T06:47:22.342Z,74.40
2022-12-15T06:49:55.502Z,74.43
2022-12-15T06:52:27.663Z,74.70
2022-12-15T06:54:59.843Z,74.65
2022-12-15T06:57:32.038Z,74.58
2022-12-15T07:00:04.972Z,74.65
2022-12-15T07:02:37.363Z,74.85
2022-12-15T07:05:10.531Z,75.03
2022-12-15T07:07:42.709Z,74.93
2022-12-15T07:10:15.151Z,75.08
2022-12-15T07:12:47.283Z,75.19
2022-12-15T07:15:19.856Z,75.13
2022-12-15T07:17:52.469Z,75.27
2022-12-15T07:20:28.768Z,75.14
2022-12-15T07:23:03.911Z,75.18
2022-12-15T07:25:36.791Z,75.40
2022-12-15T07:28:09.803Z,75.21
2022-12-15T07:30:42.035Z,75.28
2022-12-15T07:33:15.100Z,75.20
2022-12-15T07:35:56.150Z,75.00
2022-12-15T07:38:29.679Z,75.38
2022-12-15T07:41:05.651Z,75.29
2022-12-15T07:43:38.600Z,75.53
2022-12-15T07:46:11.302Z,75.46
2022-12-15T07:48:43.512Z,75.44
2022-12-15T07:51:19.711Z,75.42
2022-12-15T07:53:52.920Z,75.33
2022-12-15T07:56:25.139Z,75.62
2022-12-15T07:58:57.271Z,75.28
2022-12-15T08:01:29.562Z,75.56
2022-12-15T08:04:02.255Z,75.43
2022-12-15T08:06:34.537Z,75.58
2022-12-15T08:09:06.724Z,75.49
2022-12-15T08:11:39.019Z,75.20
2022-12-15T08:14:16.889Z,75.36
2022-12-15T08:16:50.144Z,75.41
2022-12-15T08:19:22.586Z,75.28
2022-12-15T08:21:54.796Z,75.71
2022-12-15T08:24:27.259Z,75.58
2022-12-15T08:27:00.016Z,75.75
2022-12-15T08:29:50.722Z,75.71
2022-12-15T08:32:24.651Z,75.70
2022-12-15T08:34:56.952Z,75.80
2022-12-15T08:37:29.158Z,75.74
2022-12-15T08:40:01.283Z,75.76
2022-12-15T08:42:37.681Z,75.66
2022-12-15T08:45:12.549Z,75.57
2022-12-15T08:47:44.704Z,75.85
2022-12-15T08:50:17.060Z,75.76
2022-12-15T08:53:13.842Z,75.71
2022-12-15T08:55:41.827Z,75.89
2022-12-15T08:58:14.009Z,75.85
2022-12-15T09:00:46.679Z,75.76
2022-12-15T09:03:18.833Z,75.72
2022-12-15T09:05:51.023Z,75.73
2022-12-15T09:08:23.156Z,75.60
2022-12-15T09:10:55.307Z,75.82
2022-12-15T09:13:28.003Z,75.65
2022-12-15T09:16:10.758Z,75.70
2022-12-15T09:18:45.522Z,75.57
2022-12-15T09:21:19.170Z,75.63
2022-12-15T09:23:52.861Z,75.71
2022-12-15T09:26:26.170Z,75.76
2022-12-15T09:28:59.008Z,75.67
2022-12-15T09:31:33.034Z,76.05
2022-12-15T09:34:05.426Z,75.63
2022-12-15T09:36:37.586Z,75.74
2022-12-15T09:39:12.024Z,75.63
2022-12-15T09:41:59.756Z,75.83
2022-12-15T09:44:33.916Z,75.50
2022-12-15T09:47:16.180Z,75.56
2022-12-15T09:49:55.573Z,75.63
2022-12-15T09:52:30.247Z,75.70
2022-12-15T09:55:04.250Z,75.83
2022-12-15T09:57:42.132Z,75.80
2022-12-15T10:00:22.330Z,75.75
2022-12-15T10:03:36.508Z,75.82
2022-12-15T10:06:17.772Z,75.96
2022-12-15T10:08:56.075Z,75.66
2022-12-15T10:11:50.182Z,75.59
2022-12-15T10:14:33.526Z,75.57
2022-12-15T10:17:17.229Z,75.75
2022-12-15T10:19:55.311Z,75.77
2022-12-15T10:22:32.062Z,75.61
2022-12-15T10:25:14.991Z,75.68
2022-12-15T10:28:08.216Z,75.76
2022-12-15T10:30:51.408Z,75.45
2022-12-15T10:33:28.422Z,75.59
2022-12-15T10:36:01.016Z,75.63
2022-12-15T10:38:38.565Z,75.23
2022-12-15T10:41:12.931Z,75.36
2022-12-15T10:43:47.602Z,75.43
2022-12-15T10:46:24.307Z,75.77
2022-12-15T10:49:00.432Z,75.63
2022-12-15T10:51:34.429Z,75.62
2022-12-15T10:54:13.313Z,75.37
2022-12-15T10:56:52.765Z,75.50
2022-12-15T10:59:31.203Z,75.49
2022-12-15T11:02:27.308Z,75.48
2022-12-15T11:05:01.280Z,75.22
2022-12-15T11:07:39.905Z,75.22
2022-12-15T11:10:50.044Z,75.41
2022-12-15T11:13:27.310Z,75.40
2022-12-15T11:16:16.280Z,75.61
2022-12-15T11:18:49.747Z,75.35
2022-12-15T11:21:25.632Z,75.56
2022-12-15T11:24:05.929Z,75.51
2022-12-15T11:26:50.329Z,75.47
2022-12-15T11:29:34.584Z,75.24
2022-12-15T11:32:07.701Z,75.46
2022-12-15T11:34:43.386Z,75.36
2022-12-15T11:37:36.421Z,75.46
2022-12-15T11:40:30.982Z,75.48
2022-12-15T11:43:28.411Z,75.07
2022-12-15T11:46:17.515Z,74.89
2022-12-15T11:49:16.243Z,74.86
2022-12-15T11:51:54.992Z,75.09
2022-12-15T11:54:36.051Z,75.15
2022-12-15T11:57:27.705Z,75.20
2022-12-15T12:00:07.124Z,74.74
2022-12-15T12:03:05.538Z,75.14
2022-12-15T12:05:51.915Z,74.94
2022-12-15T12:08:39.513Z,74.74
2022-12-15T12:11:16.882Z,74.85
2022-12-15T12:14:11.941Z,74.78
2022-12-15T12:16:51.360Z,75.10
2022-12-15T12:19:32.237Z,74.92
2022-12-15T12:22:08.686Z,74.89
2022-12-15T12:24:48.972Z,74.78
2022-12-15T12:27:31.906Z,74.91
2022-12-15T12:30:10.067Z,74.97
2022-12-15T12:32:50.497Z,74.85
2022-12-15T12:35:32.885Z,74.82
2022-12-15T12:38:08.139Z,74.61
2022-12-15T12:40:54.587Z,74.74
2022-12-15T12:43:28.932Z,74.64
2022-12-15T12:46:06.875Z,74.47
2022-12-15T12:48:44.922Z,74.72
2022-12-15T12:51:28.404Z,74.62
2022-12-15T12:54:02.185Z,74.46
2022-12-15T12:56:45.590Z,74.44
2022-12-15T12:59:44.979Z,74.32
2022-12-15T13:02:55.160Z,74.60
2022-12-15T13:05:33.771Z,74.81
2022-12-15T13:12:14.959Z,74.53
2022-12-15T13:14:57.321Z,74.63
2022-12-15T13:17:39.477Z,74.72
2022-12-15T13:20:29.499Z,74.54
2022-12-15T13:23:31.675Z,74.85
2022-12-15T13:26:16.281Z,74.67
2022-12-15T13:28:53.165Z,74.38
2022-12-15T13:31:34.458Z,74.46
2022-12-15T13:34:23.202Z,74.40
2022-12-15T13:37:03.167Z,74.51
2022-12-15T13:39:49.968Z,74.75
2022-12-15T13:42:48.233Z,74.66
2022-12-15T13:45:44.171Z,74.54
2022-12-15T13:48:25.773Z,74.42
2022-12-15T13:51:06.043Z,74.61
2022-12-15T13:53:44.690Z,74.50
2022-12-15T13:56:42.942Z,74.76
2022-12-15T13:59:26.714Z,74.76
2022-12-15T14:01:58.916Z,74.91
2022-12-15T14:04:31.352Z,74.82
2022-12-15T14:07:04.498Z,74.71
2022-12-15T14:09:40.616Z,74.73
2022-12-15T14:12:16.685Z,74.84
2022-12-15T14:14:52.541Z,74.75
2022-12-15T14:17:25.034Z,74.75
2022-12-15T14:19:57.404Z,74.75
2022-12-15T14:22:31.113Z,74.63
2022-12-15T14:25:05.428Z,74.85
2022-12-15T14:27:37.575Z,74.75
2022-12-15T14:30:29.378Z,74.68
2022-12-15T14:33:07.111Z,74.57
2022-12-15T14:35:42.828Z,74.56
2022-12-15T14:38:19.359Z,74.72
2022-12-15T14:40:53.293Z,74.87
2022-12-15T14:43:28.844Z,74.84
2022-12-15T14:46:07.865Z,74.73
2022-12-15T14:48:45.368Z,74.87
2022-12-15T14:51:17.726Z,74.78
2022-12-15T14:53:53.458Z,75.00
2022-12-15T14:56:30.515Z,74.82
2022-12-15T14:59:05.973Z,74.87
2022-12-15T15:01:42.195Z,74.83
2022-12-15T15:03:11.154Z,74.48
2022-12-15T15:04:29.307Z,75.03
2022-12-15T15:07:04.326Z,74.76
2022-12-15T15:09:42.202Z,74.92
2022-12-15T15:12:18.494Z,75.09
2022-12-15T15:14:54.802Z,75.03
2022-12-15T15:17:32.493Z,74.98
2022-12-15T15:20:08.416Z,74.79
2022-12-15T15:22:43.611Z,74.94
2022-12-15T15:25:41.132Z,74.85
2022-12-15T15:28:24.994Z,74.88
2022-12-15T15:31:00.612Z,74.99
2022-12-15T15:33:33.236Z,75.10
2022-12-15T15:36:11.411Z,75.10
2022-12-15T15:38:46.765Z,75.09
2022-12-15T15:41:21.140Z,74.87
2022-12-15T15:43:53.411Z,75.10
2022-12-15T15:46:29.574Z,75.11
2022-12-15T15:49:04.883Z,74.92
2022-12-15T15:51:37.872Z,75.12
2022-12-15T15:54:14.326Z,75.21
2022-12-15T15:56:46.608Z,75.09
2022-12-15T15:59:21.163Z,75.23
2022-12-15T16:01:57.706Z,75.22
2022-12-15T16:04:30.008Z,75.26
2022-12-15T16:07:02.182Z,75.35
2022-12-15T16:09:36.011Z,75.31
2022-12-15T16:12:11.606Z,75.26
2022-12-15T16:14:43.790Z,75.37
2022-12-15T16:17:17.346Z,75.24
2022-12-15T16:19:49.590Z,75.14
2022-12-15T16:22:23.623Z,75.37
2022-12-15T16:24:56.578Z,75.45
2022-12-15T16:27:28.811Z,75.36
2022-12-15T16:30:01.052Z,75.43
2022-12-15T16:32:33.256Z,75.48
2022-12-15T16:35:07.140Z,75.60
2022-12-15T16:37:42.114Z,75.40
2022-12-15T16:40:20.535Z,75.39
2022-12-15T16:42:58.289Z,75.25
2022-12-15T16:45:32.239Z,75.28
2022-12-15T16:48:04.612Z,75.15
2022-12-15T16:50:40.319Z,75.27
2022-12-15T16:53:18.324Z,75.44
2022-12-15T16:55:53.776Z,75.57
2022-12-15T16:58:27.353Z,75.45
2022-12-15T17:00:59.578Z,75.53
2022-12-15T17:03:31.990Z,75.51
2022-12-15T17:06:08.991Z,75.46
2022-12-15T17:08:44.907Z,75.60
2022-12-15T17:11:20.507Z,75.72
2022-12-15T17:13:55.035Z,75.51
2022-12-15T17:16:29.683Z,75.56
2022-12-15T17:19:01.931Z,75.67
2022-12-15T17:21:36.953Z,75.56
2022-12-15T17:24:15.041Z,75.75
2022-12-15T17:26:47.667Z,75.67
2022-12-15T17:29:23.087Z,75.52
2022-12-15T17:31:55.636Z,75.61
2022-12-15T17:34:31.331Z,75.80
2022-12-15T17:37:06.171Z,75.83
2022-12-15T17:39:38.768Z,75.77
2022-12-15T17:42:18.223Z,75.61
2022-12-15T17:44:51.635Z,75.79
2022-12-15T17:47:25.519Z,75.69
2022-12-15T17:49:57.767Z,75.69
2022-12-15T17:52:34.560Z,75.93
2022-12-15T17:55:19.617Z,75.68
2022-12-15T17:57:53.725Z,75.76
2022-12-15T18:00:29.194Z,76.08
2022-12-15T18:03:02.695Z,76.17
2022-12-15T18:05:35.383Z,76.01
2022-12-15T18:08:15.326Z,75.99
2022-12-15T18:10:50.537Z,76.02
2022-12-15T18:13:26.057Z,76.22
2022-12-15T18:15:59.295Z,76.06
2022-12-15T18:18:31.625Z,75.99
2022-12-15T18:21:13.099Z,76.18
2022-12-15T18:23:47.659Z,76.15
2022-12-15T18:26:19.831Z,76.05
2022-12-15T18:28:51.991Z,76.42
2022-12-15T18:31:27.068Z,76.22
2022-12-15T18:34:04.295Z,75.97
2022-12-15T18:36:37.320Z,76.01
2022-12-15T18:39:19.696Z,75.78
2022-12-15T18:41:54.769Z,76.07
2022-12-15T18:44:28.984Z,76.22
2022-12-15T18:47:01.226Z,76.06
2022-12-15T18:49:33.391Z,76.08
2022-12-15T18:52:05.669Z,76.12
2022-12-15T18:54:38.763Z,76.11
2022-12-15T18:57:31.261Z,76.08
2022-12-15T19:00:09.242Z,76.09
2022-12-15T19:02:41.969Z,76.24
2022-12-15T19:05:27.863Z,76.19
2022-12-15T19:08:04.565Z,76.29
2022-12-15T19:10:38.725Z,76.21
2022-12-15T19:13:16.730Z,76.31
2022-12-15T19:15:49.199Z,76.24
2022-12-15T19:18:40.657Z,76.29
2022-12-15T19:21:36.751Z,76.23
2022-12-15T19:24:11.538Z,76.45
2022-12-15T19:26:44.123Z,76.30
2022-12-15T19:29:21.282Z,76.43
2022-12-15T19:31:54.891Z,76.41
2022-12-15T19:34:27.226Z,76.32
2022-12-15T19:36:59.889Z,76.19
2022-12-15T19:39:35.267Z,76.42
2022-12-15T19:42:15.270Z,76.37
2022-12-15T19:44:47.414Z,76.42
2022-12-15T19:47:19.870Z,76.43
2022-12-15T19:49:52.958Z,76.59
2022-12-15T19:52:28.370Z,76.69
2022-12-15T19:55:00.782Z,76.49
2022-12-15T19:57:33.664Z,76.21
2022-12-15T20:00:12.039Z,76.38
2022-12-15T20:02:44.737Z,76.44
2022-12-15T20:05:17.098Z,76.58
2022-12-15T20:07:50.071Z,76.73
2022-12-15T20:10:31.321Z,76.63
2022-12-15T20:13:04.451Z,76.78
2022-12-15T20:15:36.594Z,76.74
2022-12-15T20:18:09.436Z,76.85
2022-12-15T20:20:43.550Z,76.88
2022-12-15T20:23:19.409Z,76.92
2022-12-15T20:25:51.607Z,76.69
2022-12-15T20:28:26.597Z,76.78
2022-12-15T20:31:00.119Z,76.86
2022-12-15T20:33:32.658Z,76.99
2022-12-15T20:36:05.330Z,77.11
2022-12-15T20:38:37.511Z,77.04
2022-12-15T20:41:16.058Z,76.91
2022-12-15T20:43:48.967Z,76.89
2022-12-15T20:46:24.197Z,76.86
2022-12-15T20:48:57.727Z,76.98
2022-12-15T20:51:31.733Z,76.97
2022-12-15T20:54:14.578Z,77.11
2022-12-15T20:56:47.896Z,76.94
2022-12-15T20:59:20.310Z,77.01
2022-12-15T21:01:52.673Z,77.06
2022-12-15T21:04:29.599Z,76.93
2022-12-15T21:07:01.775Z,76.90
2022-12-15T21:09:33.939Z,76.88
2022-12-15T21:12:09.684Z,76.93
2022-12-15T21:14:41.826Z,76.96
2022-12-15T21:17:17.488Z,76.97
2022-12-15T21:19:50.421Z,76.83
2022-12-15T21:22:26.498Z,76.82
2022-12-15T21:25:00.671Z,77.11
2022-12-15T21:27:32.937Z,77.08
2022-12-15T21:30:07.307Z,77.15
2022-12-15T21:32:39.945Z,77.15
2022-12-15T21:35:17.360Z,77.10
2022-12-15T21:37:51.749Z,77.16
2022-12-15T21:40:28.832Z,76.78
2022-12-15T21:43:04.338Z,77.12
2022-12-15T21:45:36.470Z,77.06
2022-12-15T21:48:26.996Z,77.01
2022-12-15T21:50:59.140Z,76.88
2022-12-15T21:53:31.388Z,77.03
2022-12-15T21:56:03.556Z,76.93
2022-12-15T21:58:35.861Z,76.96
2022-12-15T22:01:10.289Z,76.89
2022-12-15T22:03:42.894Z,76.82
2022-12-15T22:06:20.185Z,77.03
2022-12-15T22:08:55.406Z,76.96
2022-12-15T22:11:28.862Z,76.98
2022-12-15T22:14:03.422Z,76.92
2022-12-15T22:16:35.906Z,77.04
2022-12-15T22:19:14.637Z,76.93
2022-12-15T22:21:46.798Z,76.83
2022-12-15T22:24:19.126Z,76.95
2022-12-15T22:26:51.666Z,76.87
2022-12-15T22:29:25.447Z,76.95
2022-12-15T22:31:58.260Z,76.97
2022-12-15T22:34:34.724Z,76.74
2022-12-15T22:37:06.967Z,76.95
2022-12-15T22:39:39.107Z,77.03
2022-12-15T22:42:16.247Z,76.86
2022-12-15T22:44:48.630Z,76.93
2022-12-15T22:47:20.875Z,77.14
2022-12-15T22:49:53.050Z,77.20
2022-12-15T22:52:26.879Z,77.27
2022-12-15T22:54:59.200Z,77.22
2022-12-15T22:57:31.618Z,77.24
2022-12-15T23:00:07.476Z,77.28
2022-12-15T23:02:44.399Z,77.46
2022-12-15T23:05:20.080Z,77.41
2022-12-15T23:07:52.643Z,77.44
2022-12-15T23:10:44.801Z,77.56
2022-12-15T23:13:16.939Z,77.45
2022-12-15T23:16:06.512Z,77.57
2022-12-15T23:18:39.010Z,77.70
2022-12-15T23:21:11.496Z,77.68
2022-12-15T23:23:44.054Z,77.71
2022-12-15T23:26:17.556Z,77.73
2022-12-15T23:28:49.770Z,77.73
2022-12-15T23:31:23.764Z,77.81
2022-12-15T23:33:55.996Z,77.70
2022-12-15T23:36:28.170Z,77.73
2022-12-15T23:39:01.261Z,77.86
2022-12-15T23:41:33.397Z,77.93
2022-12-15T23:44:05.914Z,77.83
2022-12-15T23:46:38.073Z,77.87
2022-12-15T23:49:10.287Z,77.90
2022-12-15T23:51:42.539Z,77.79
2022-12-15T23:54:14.740Z,77.85
2022-12-15T23:56:46.955Z,77.85
2022-12-15T23:59:19.086Z,78.08
